createdAt,value
2017-12-29T00:00:10.807Z,1002.66
2017-12-29T00:01:38.015Z,1002.69
2017-12-29T00:03:05.279Z,1002.72
2017-12-29T00:04:32.528Z,1002.74
2017-12-29T00:05:59.703Z,1002.74
2017-12-29T00:07:26.925Z,1002.75
2017-12-29T00:08:54.215Z,1002.73
2017-12-29T00:10:21.491Z,1002.75
2017-12-29T00:11:48.837Z,1002.73
2017-12-29T00:13:15.876Z,1002.70
2017-12-29T00:14:42.960Z,1002.72
2017-12-29T00:16:10.059Z,1002.75
2017-12-29T00:17:37.274Z,1002.77
2017-12-29T00:19:04.476Z,1002.78
2017-12-29T00:20:31.791Z,1002.80
2017-12-29T00:21:59.093Z,1002.82
2017-12-29T00:23:26.207Z,1002.84
2017-12-29T00:24:53.481Z,1002.83
2017-12-29T00:26:20.812Z,1002.87
2017-12-29T00:27:48.005Z,1002.88
2017-12-29T00:29:15.363Z,1002.89
2017-12-29T00:30:42.485Z,1002.92
2017-12-29T00:32:09.798Z,1002.92
2017-12-29T00:33:36.939Z,1002.94
2017-12-29T00:35:04.321Z,1002.96
2017-12-29T00:36:31.544Z,1002.97
2017-12-29T00:37:58.753Z,1002.98
2017-12-29T00:39:26.059Z,1003.03
2017-12-29T00:40:53.238Z,1003.04
2017-12-29T00:42:20.442Z,1003.08
2017-12-29T00:43:47.701Z,1003.08
2017-12-29T00:45:14.638Z,1003.07
2017-12-29T00:46:41.920Z,1003.11
2017-12-29T00:48:09.159Z,1003.11
2017-12-29T00:49:36.469Z,1003.12
2017-12-29T00:51:03.718Z,1003.14
2017-12-29T00:52:30.934Z,1003.16
2017-12-29T00:53:58.152Z,1003.17
2017-12-29T00:55:25.336Z,1003.18
2017-12-29T00:56:52.461Z,1003.23
2017-12-29T00:58:19.783Z,1003.22
2017-12-29T00:59:47.104Z,1003.25
2017-12-29T01:01:14.372Z,1003.25
2017-12-29T01:02:41.570Z,1003.24
2017-12-29T01:04:08.774Z,1003.24
2017-12-29T01:05:36.095Z,1003.22
2017-12-29T01:07:03.522Z,1003.20
2017-12-29T01:08:30.657Z,1003.22
2017-12-29T01:09:57.897Z,1003.21
2017-12-29T01:11:25.239Z,1003.17
2017-12-29T01:12:52.381Z,1003.15
2017-12-29T01:14:19.687Z,1003.20
2017-12-29T01:15:46.939Z,1003.18
2017-12-29T01:17:14.030Z,1003.24
2017-12-29T01:18:41.013Z,1003.23
2017-12-29T01:20:08.388Z,1003.24
2017-12-29T01:21:35.690Z,1003.22
2017-12-29T01:23:02.963Z,1003.25
2017-12-29T01:24:30.489Z,1003.23
2017-12-29T01:25:57.557Z,1003.24
2017-12-29T01:27:24.757Z,1003.25
2017-12-29T01:28:51.895Z,1003.32
2017-12-29T01:30:19.063Z,1003.31
2017-12-29T01:31:46.210Z,1003.28
2017-12-29T01:33:13.429Z,1003.27
2017-12-29T01:34:40.659Z,1003.31
2017-12-29T01:36:08.031Z,1003.32
2017-12-29T01:37:35.344Z,1003.32
2017-12-29T01:39:02.694Z,1003.35
2017-12-29T01:40:29.690Z,1003.34
2017-12-29T01:41:57.101Z,1003.29
2017-12-29T01:43:24.477Z,1003.28
2017-12-29T01:44:51.633Z,1003.30
2017-12-29T01:46:18.651Z,1003.32
2017-12-29T01:47:45.999Z,1003.35
2017-12-29T01:49:13.067Z,1003.34
2017-12-29T01:50:40.237Z,1003.32
2017-12-29T01:52:07.410Z,1003.38
2017-12-29T01:53:34.785Z,1003.35
2017-12-29T01:55:02.023Z,1003.37
2017-12-29T01:56:29.257Z,1003.35
2017-12-29T01:57:56.619Z,1003.37
2017-12-29T01:59:23.822Z,1003.38
2017-12-29T02:00:51.129Z,1003.36
2017-12-29T02:02:18.331Z,1003.33
2017-12-29T02:03:45.445Z,1003.34
2017-12-29T02:05:12.586Z,1003.32
2017-12-29T02:06:39.725Z,1003.34
2017-12-29T02:08:06.853Z,1003.32
2017-12-29T02:09:34.269Z,1003.38
2017-12-29T02:11:01.607Z,1003.37
2017-12-29T02:12:29.110Z,1003.37
2017-12-29T02:13:56.224Z,1003.36
2017-12-29T02:15:23.536Z,1003.37
2017-12-29T02:16:50.914Z,1003.41
2017-12-29T02:18:18.175Z,1003.40
2017-12-29T02:19:45.456Z,1003.46
2017-12-29T02:21:12.553Z,1003.47
2017-12-29T02:22:39.780Z,1003.46
2017-12-29T02:24:07.046Z,1003.48
2017-12-29T02:25:34.325Z,1003.49
2017-12-29T02:27:01.730Z,1003.49
2017-12-29T02:28:28.848Z,1003.49
2017-12-29T02:29:56.099Z,1003.48
2017-12-29T02:31:23.555Z,1003.50
2017-12-29T02:32:50.708Z,1003.47
2017-12-29T02:34:18.114Z,1003.48
2017-12-29T02:35:45.009Z,1003.48
2017-12-29T02:37:11.712Z,1003.44
2017-12-29T02:38:38.919Z,1003.44
2017-12-29T02:40:06.328Z,1003.43
2017-12-29T02:41:33.568Z,1003.43
2017-12-29T02:43:00.817Z,1003.40
2017-12-29T02:44:28.062Z,1003.39
2017-12-29T02:45:55.290Z,1003.40
2017-12-29T02:47:22.528Z,1003.40
2017-12-29T02:48:49.832Z,1003.43
2017-12-29T02:50:17.125Z,1003.44
2017-12-29T02:51:44.324Z,1003.46
2017-12-29T02:53:11.501Z,1003.49
2017-12-29T02:54:38.737Z,1003.53
2017-12-29T02:56:06.097Z,1003.51
2017-12-29T02:57:33.258Z,1003.55
2017-12-29T02:59:00.556Z,1003.55
2017-12-29T03:00:27.887Z,1003.58
2017-12-29T03:01:55.199Z,1003.61
2017-12-29T03:03:22.508Z,1003.58
2017-12-29T03:04:49.823Z,1003.58
2017-12-29T03:06:16.977Z,1003.62
2017-12-29T03:07:44.108Z,1003.63
2017-12-29T03:09:11.011Z,1003.61
2017-12-29T03:10:38.386Z,1003.62
2017-12-29T03:12:02.702Z,1003.64
2017-12-29T03:13:33.103Z,1003.63
2017-12-29T03:15:00.480Z,1003.63
2017-12-29T03:16:27.809Z,1003.62
2017-12-29T03:17:55.167Z,1003.62
2017-12-29T03:19:22.377Z,1003.64
2017-12-29T03:20:49.418Z,1003.66
2017-12-29T03:22:16.559Z,1003.66
2017-12-29T03:23:43.855Z,1003.67
2017-12-29T03:25:11.052Z,1003.66
2017-12-29T03:26:38.317Z,1003.67
2017-12-29T03:28:05.615Z,1003.69
2017-12-29T03:29:32.954Z,1003.66
2017-12-29T03:31:00.373Z,1003.64
2017-12-29T03:32:27.586Z,1003.66
2017-12-29T03:33:54.858Z,1003.72
2017-12-29T03:35:21.980Z,1003.71
2017-12-29T03:36:49.332Z,1003.71
2017-12-29T03:38:16.572Z,1003.76
2017-12-29T03:39:43.816Z,1003.76
2017-12-29T03:41:11.167Z,1003.80
2017-12-29T03:42:38.342Z,1003.81
2017-12-29T03:44:05.742Z,1003.82
2017-12-29T03:45:32.984Z,1003.82
2017-12-29T03:47:00.285Z,1003.83
2017-12-29T03:48:27.565Z,1003.80
2017-12-29T03:49:54.887Z,1003.86
2017-12-29T03:51:22.084Z,1003.85
2017-12-29T03:52:49.273Z,1003.85
2017-12-29T03:54:16.607Z,1003.82
2017-12-29T03:55:43.741Z,1003.82
2017-12-29T03:57:11.006Z,1003.87
2017-12-29T03:58:38.371Z,1003.87
2017-12-29T04:00:05.881Z,1003.97
2017-12-29T04:01:33.188Z,1004.05
2017-12-29T04:03:00.506Z,1004.05
2017-12-29T04:04:27.804Z,1004.01
2017-12-29T04:05:54.927Z,1004.03
2017-12-29T04:07:22.070Z,1004.05
2017-12-29T04:08:49.342Z,1004.07
2017-12-29T04:10:16.680Z,1004.12
2017-12-29T04:11:44.044Z,1004.11
2017-12-29T04:13:10.987Z,1004.13
2017-12-29T04:14:38.150Z,1004.13
2017-12-29T04:16:05.305Z,1004.11
2017-12-29T04:17:32.439Z,1004.14
2017-12-29T04:18:59.697Z,1004.13
2017-12-29T04:20:26.808Z,1004.18
2017-12-29T04:21:54.114Z,1004.18
2017-12-29T04:23:21.365Z,1004.19
2017-12-29T04:24:48.654Z,1004.17
2017-12-29T04:26:16.049Z,1004.18
2017-12-29T04:27:43.153Z,1004.23
2017-12-29T04:29:10.516Z,1004.21
2017-12-29T04:30:37.899Z,1004.23
2017-12-29T04:32:05.198Z,1004.26
2017-12-29T04:33:32.420Z,1004.26
2017-12-29T04:34:59.543Z,1004.27
2017-12-29T04:36:27.037Z,1004.27
2017-12-29T04:37:54.220Z,1004.29
2017-12-29T04:39:21.376Z,1004.29
2017-12-29T04:40:48.665Z,1004.28
2017-12-29T04:42:15.875Z,1004.31
2017-12-29T04:43:43.073Z,1004.31
2017-12-29T04:45:10.479Z,1004.36
2017-12-29T04:46:37.733Z,1004.36
2017-12-29T04:48:04.980Z,1004.35
2017-12-29T04:49:32.182Z,1004.34
2017-12-29T04:50:59.632Z,1004.38
2017-12-29T04:52:26.894Z,1004.40
2017-12-29T04:53:54.072Z,1004.42
2017-12-29T04:55:21.432Z,1004.42
2017-12-29T04:56:48.807Z,1004.44
2017-12-29T04:58:15.973Z,1004.45
2017-12-29T04:59:43.281Z,1004.45
2017-12-29T05:01:10.638Z,1004.48
2017-12-29T05:02:37.904Z,1004.50
2017-12-29T05:04:05.221Z,1004.49
2017-12-29T05:05:32.642Z,1004.52
2017-12-29T05:07:00.159Z,1004.52
2017-12-29T05:08:27.272Z,1004.54
2017-12-29T05:09:54.595Z,1004.55
2017-12-29T05:11:21.774Z,1004.57
2017-12-29T05:12:49.119Z,1004.62
2017-12-29T05:14:16.453Z,1004.62
2017-12-29T05:15:43.680Z,1004.62
2017-12-29T05:17:11.096Z,1004.64
2017-12-29T05:18:38.456Z,1004.69
2017-12-29T05:20:05.809Z,1004.70
2017-12-29T05:21:33.265Z,1004.72
2017-12-29T05:23:00.441Z,1004.73
2017-12-29T05:24:27.696Z,1004.73
2017-12-29T05:25:54.784Z,1004.73
2017-12-29T05:27:21.895Z,1004.72
2017-12-29T05:28:49.269Z,1004.74
2017-12-29T05:30:16.481Z,1004.77
2017-12-29T05:31:43.630Z,1004.77
2017-12-29T05:33:10.754Z,1004.78
2017-12-29T05:34:38.043Z,1004.76
2017-12-29T05:36:05.114Z,1004.77
2017-12-29T05:37:32.159Z,1004.74
2017-12-29T05:38:59.448Z,1004.73
2017-12-29T05:40:26.801Z,1004.74
2017-12-29T05:41:53.872Z,1004.77
2017-12-29T05:43:21.069Z,1004.78
2017-12-29T05:44:49.213Z,1004.80
2017-12-29T05:46:15.733Z,1004.86
2017-12-29T05:47:42.847Z,1004.86
2017-12-29T05:49:10.206Z,1004.86
2017-12-29T05:50:37.295Z,1004.87
2017-12-29T05:52:04.639Z,1004.82
2017-12-29T05:53:31.795Z,1004.84
2017-12-29T05:54:59.211Z,1004.83
2017-12-29T05:56:26.538Z,1004.82
2017-12-29T05:57:53.674Z,1004.79
2017-12-29T05:59:21.031Z,1004.80
2017-12-29T06:00:48.123Z,1004.79
2017-12-29T06:02:15.272Z,1004.80
2017-12-29T06:03:42.699Z,1004.79
2017-12-29T06:05:09.763Z,1004.80
2017-12-29T06:06:36.888Z,1004.80
2017-12-29T06:08:04.118Z,1004.85
2017-12-29T06:09:31.476Z,1004.86
2017-12-29T06:10:58.813Z,1004.85
2017-12-29T06:12:25.967Z,1004.90
2017-12-29T06:13:53.394Z,1004.86
2017-12-29T06:15:20.666Z,1004.86
2017-12-29T06:16:47.994Z,1004.86
2017-12-29T06:18:15.304Z,1004.87
2017-12-29T06:19:42.429Z,1004.89
2017-12-29T06:21:09.770Z,1004.90
2017-12-29T06:22:37.111Z,1004.93
2017-12-29T06:24:04.318Z,1004.94
2017-12-29T06:25:31.608Z,1004.99
2017-12-29T06:26:58.816Z,1004.96
2017-12-29T06:28:25.926Z,1004.99
2017-12-29T06:29:53.014Z,1004.99
2017-12-29T06:31:20.277Z,1005.02
2017-12-29T06:32:47.444Z,1005.07
2017-12-29T06:34:14.605Z,1005.08
2017-12-29T06:35:41.933Z,1005.11
2017-12-29T06:37:09.177Z,1005.14
2017-12-29T06:38:36.525Z,1005.13
2017-12-29T06:40:03.834Z,1005.20
2017-12-29T06:41:31.045Z,1005.21
2017-12-29T06:42:58.375Z,1005.23
2017-12-29T06:44:25.635Z,1005.23
2017-12-29T06:45:52.963Z,1005.26
2017-12-29T06:47:20.268Z,1005.27
2017-12-29T06:48:47.583Z,1005.26
2017-12-29T06:50:14.910Z,1005.26
2017-12-29T06:51:42.207Z,1005.27
2017-12-29T06:53:09.426Z,1005.27
2017-12-29T06:54:36.638Z,1005.28
2017-12-29T06:56:03.860Z,1005.26
2017-12-29T06:57:31.240Z,1005.26
2017-12-29T06:58:58.542Z,1005.24
2017-12-29T07:00:25.630Z,1005.28
2017-12-29T07:01:52.942Z,1005.28
2017-12-29T07:03:20.265Z,1005.29
2017-12-29T07:04:47.443Z,1005.33
2017-12-29T07:06:14.712Z,1005.32
2017-12-29T07:07:42.008Z,1005.34
2017-12-29T07:09:09.372Z,1005.39
2017-12-29T07:10:36.686Z,1005.42
2017-12-29T07:12:03.986Z,1005.46
2017-12-29T07:13:31.326Z,1005.51
2017-12-29T07:14:58.642Z,1005.52
2017-12-29T07:16:26.069Z,1005.58
2017-12-29T07:17:53.126Z,1005.61
2017-12-29T07:19:20.504Z,1005.61
2017-12-29T07:20:47.798Z,1005.62
2017-12-29T07:22:15.021Z,1005.62
2017-12-29T07:23:42.241Z,1005.60
2017-12-29T07:25:09.502Z,1005.59
2017-12-29T07:26:36.772Z,1005.58
2017-12-29T07:28:03.976Z,1005.60
2017-12-29T07:29:31.376Z,1005.64
2017-12-29T07:30:58.650Z,1005.67
2017-12-29T07:32:26.023Z,1005.69
2017-12-29T07:33:53.130Z,1005.75
2017-12-29T07:35:20.372Z,1005.74
2017-12-29T07:36:47.707Z,1005.77
2017-12-29T07:38:14.721Z,1005.78
2017-12-29T07:39:41.879Z,1005.76
2017-12-29T07:41:09.259Z,1005.78
2017-12-29T07:42:36.580Z,1005.81
2017-12-29T07:44:04.001Z,1005.87
2017-12-29T07:45:31.078Z,1005.85
2017-12-29T07:46:58.331Z,1005.86
2017-12-29T07:48:25.551Z,1005.90
2017-12-29T07:49:52.678Z,1005.91
2017-12-29T07:51:19.783Z,1005.95
2017-12-29T07:52:46.843Z,1005.96
2017-12-29T07:54:14.071Z,1005.96
2017-12-29T07:55:41.170Z,1005.99
2017-12-29T07:57:08.396Z,1006.02
2017-12-29T07:58:35.397Z,1006.05
2017-12-29T08:00:02.705Z,1006.05
2017-12-29T08:01:30.031Z,1006.07
2017-12-29T08:02:57.160Z,1006.10
2017-12-29T08:04:24.300Z,1006.10
2017-12-29T08:05:51.650Z,1006.12
2017-12-29T08:07:18.799Z,1006.12
2017-12-29T08:08:46.132Z,1006.16
2017-12-29T08:10:13.223Z,1006.17
2017-12-29T08:11:40.580Z,1006.18
2017-12-29T08:13:07.796Z,1006.19
2017-12-29T08:14:34.957Z,1006.18
2017-12-29T08:16:02.187Z,1006.19
2017-12-29T08:17:29.506Z,1006.19
2017-12-29T08:18:56.541Z,1006.17
2017-12-29T08:20:23.865Z,1006.21
2017-12-29T08:21:51.180Z,1006.21
2017-12-29T08:23:18.451Z,1006.23
2017-12-29T08:24:45.707Z,1006.24
2017-12-29T08:26:13.017Z,1006.27
2017-12-29T08:27:40.137Z,1006.31
2017-12-29T08:29:07.305Z,1006.36
2017-12-29T08:30:34.603Z,1006.40
2017-12-29T08:32:01.669Z,1006.40
2017-12-29T08:33:28.985Z,1006.40
2017-12-29T08:34:55.920Z,1006.45
2017-12-29T08:36:23.109Z,1006.41
2017-12-29T08:37:50.400Z,1006.41
2017-12-29T08:39:17.586Z,1006.41
2017-12-29T08:40:44.763Z,1006.41
2017-12-29T08:42:11.895Z,1006.46
2017-12-29T08:43:39.175Z,1006.45
2017-12-29T08:45:06.424Z,1006.42
2017-12-29T08:46:33.913Z,1006.46
2017-12-29T08:48:01.108Z,1006.50
2017-12-29T08:49:28.249Z,1006.55
2017-12-29T08:50:55.554Z,1006.56
2017-12-29T08:52:22.769Z,1006.56
2017-12-29T08:53:50.070Z,1006.56
2017-12-29T08:55:17.385Z,1006.57
2017-12-29T08:56:44.576Z,1006.59
2017-12-29T08:58:11.793Z,1006.61
2017-12-29T08:59:38.807Z,1006.62
2017-12-29T09:01:06.228Z,1006.62
2017-12-29T09:02:33.439Z,1006.60
2017-12-29T09:04:00.501Z,1006.62
2017-12-29T09:05:27.731Z,1006.65
2017-12-29T09:06:55.100Z,1006.68
2017-12-29T09:08:22.209Z,1006.71
2017-12-29T09:09:49.419Z,1006.77
2017-12-29T09:11:16.550Z,1006.77
2017-12-29T09:12:43.677Z,1006.86
2017-12-29T09:14:10.925Z,1006.90
2017-12-29T09:15:38.150Z,1006.96
2017-12-29T09:17:05.351Z,1006.94
2017-12-29T09:18:32.435Z,1006.99
2017-12-29T09:19:59.761Z,1007.00
2017-12-29T09:21:27.080Z,1007.00
2017-12-29T09:22:54.204Z,1007.01
2017-12-29T09:24:21.407Z,1007.01
2017-12-29T09:25:48.902Z,1007.02
2017-12-29T09:27:15.925Z,1007.08
2017-12-29T09:28:43.211Z,1007.09
2017-12-29T09:30:10.423Z,1007.09
2017-12-29T09:31:37.567Z,1007.12
2017-12-29T09:33:04.782Z,1007.12
2017-12-29T09:34:32.109Z,1007.11
2017-12-29T09:35:59.347Z,1007.14
2017-12-29T09:37:26.551Z,1007.13
2017-12-29T09:38:53.791Z,1007.09
2017-12-29T09:40:21.007Z,1007.12
2017-12-29T09:41:48.283Z,1007.15
2017-12-29T09:43:15.495Z,1007.15
2017-12-29T09:44:42.700Z,1007.14
2017-12-29T09:46:09.908Z,1007.14
2017-12-29T09:47:37.163Z,1007.21
2017-12-29T09:49:04.500Z,1007.20
2017-12-29T09:50:31.926Z,1007.12
2017-12-29T09:51:59.174Z,1007.14
2017-12-29T09:53:26.189Z,1007.08
2017-12-29T09:54:53.242Z,1007.08
2017-12-29T09:56:20.562Z,1007.04
2017-12-29T09:57:47.862Z,1007.04
2017-12-29T09:59:14.591Z,1007.05
2017-12-29T10:00:41.523Z,1007.06
2017-12-29T10:02:08.755Z,1007.03
2017-12-29T10:03:35.881Z,1007.04
2017-12-29T10:05:03.333Z,1007.00
2017-12-29T10:06:30.506Z,1007.03
2017-12-29T10:07:57.832Z,1007.04
2017-12-29T10:09:25.134Z,1007.05
2017-12-29T10:10:52.387Z,1007.05
2017-12-29T10:12:19.583Z,1007.03
2017-12-29T10:13:46.655Z,1007.05
2017-12-29T10:15:13.912Z,1007.06
2017-12-29T10:16:41.167Z,1007.09
2017-12-29T10:18:08.431Z,1007.11
2017-12-29T10:19:35.858Z,1007.08
2017-12-29T10:21:03.143Z,1007.08
2017-12-29T10:22:30.249Z,1007.10
2017-12-29T10:23:57.341Z,1007.07
2017-12-29T10:25:24.654Z,1007.08
2017-12-29T10:26:51.768Z,1007.07
2017-12-29T10:28:19.068Z,1007.07
2017-12-29T10:29:46.223Z,1007.05
2017-12-29T10:31:13.549Z,1007.01
2017-12-29T10:32:40.861Z,1006.99
2017-12-29T10:34:08.053Z,1006.96
2017-12-29T10:35:35.247Z,1006.95
2017-12-29T10:37:02.522Z,1006.91
2017-12-29T10:38:29.869Z,1006.91
2017-12-29T10:39:57.197Z,1006.87
2017-12-29T10:41:24.526Z,1006.88
2017-12-29T10:42:51.659Z,1006.88
2017-12-29T10:44:18.866Z,1006.89
2017-12-29T10:45:46.102Z,1006.89
2017-12-29T10:47:13.534Z,1006.86
2017-12-29T10:48:40.729Z,1006.83
2017-12-29T10:50:07.910Z,1006.81
2017-12-29T10:51:35.241Z,1006.86
2017-12-29T10:53:02.565Z,1006.84
2017-12-29T10:54:29.957Z,1006.79
2017-12-29T10:55:57.317Z,1006.78
2017-12-29T10:57:24.564Z,1006.76
2017-12-29T10:58:51.977Z,1006.75
2017-12-29T11:00:19.455Z,1006.74
2017-12-29T11:01:46.597Z,1006.72
2017-12-29T11:03:13.901Z,1006.76
2017-12-29T11:04:41.160Z,1006.75
2017-12-29T11:06:08.496Z,1006.75
2017-12-29T11:07:35.866Z,1006.73
2017-12-29T11:09:02.907Z,1006.66
2017-12-29T11:10:30.007Z,1006.67
2017-12-29T11:11:57.330Z,1006.65
2017-12-29T11:13:24.773Z,1006.63
2017-12-29T11:14:52.110Z,1006.63
2017-12-29T11:16:19.219Z,1006.72
2017-12-29T11:17:46.553Z,1006.75
2017-12-29T11:19:13.633Z,1006.78
2017-12-29T11:20:40.880Z,1006.77
2017-12-29T11:22:07.974Z,1006.80
2017-12-29T11:23:35.228Z,1006.78
2017-12-29T11:25:02.488Z,1006.80
2017-12-29T11:26:29.585Z,1006.79
2017-12-29T11:27:56.802Z,1006.77
2017-12-29T11:29:24.208Z,1006.75
2017-12-29T11:30:51.358Z,1006.78
2017-12-29T11:32:18.936Z,1006.77
2017-12-29T11:33:46.289Z,1006.78
2017-12-29T11:35:13.417Z,1006.75
2017-12-29T11:36:40.673Z,1006.74
2017-12-29T11:38:07.916Z,1006.78
2017-12-29T11:39:35.079Z,1006.80
2017-12-29T11:41:02.166Z,1006.80
2017-12-29T11:42:29.417Z,1006.80
2017-12-29T11:43:56.696Z,1006.81
2017-12-29T11:45:23.942Z,1006.78
2017-12-29T11:46:51.313Z,1006.82
2017-12-29T11:48:18.486Z,1006.84
2017-12-29T11:49:45.697Z,1006.83
2017-12-29T11:51:12.741Z,1006.83
2017-12-29T11:52:40.064Z,1006.83
2017-12-29T11:54:07.366Z,1006.83
2017-12-29T11:57:01.767Z,1006.78
2017-12-29T11:58:29.070Z,1006.76
2017-12-29T11:59:56.443Z,1006.77
2017-12-29T12:01:23.793Z,1006.78
2017-12-29T12:02:50.964Z,1006.77
2017-12-29T12:04:18.031Z,1006.76
2017-12-29T12:05:45.169Z,1006.73
2017-12-29T12:07:12.402Z,1006.77
2017-12-29T12:08:39.753Z,1006.79
2017-12-29T12:10:06.921Z,1006.80
2017-12-29T12:11:34.198Z,1006.82
2017-12-29T12:13:01.460Z,1006.79
2017-12-29T12:14:28.854Z,1006.79
2017-12-29T12:15:56.069Z,1006.84
2017-12-29T12:17:23.269Z,1006.82
2017-12-29T12:18:50.629Z,1006.84
2017-12-29T12:20:17.644Z,1006.84
2017-12-29T12:21:45.022Z,1006.86
2017-12-29T12:23:12.103Z,1006.83
2017-12-29T12:24:39.285Z,1006.80
2017-12-29T12:26:06.580Z,1006.81
2017-12-29T12:27:33.568Z,1006.83
2017-12-29T12:29:00.700Z,1006.83
2017-12-29T12:30:28.009Z,1006.79
2017-12-29T12:31:55.274Z,1006.80
2017-12-29T12:33:22.376Z,1006.79
2017-12-29T12:34:49.576Z,1006.76
2017-12-29T12:36:16.860Z,1006.77
2017-12-29T12:37:43.927Z,1006.75
2017-12-29T12:39:11.313Z,1006.75
2017-12-29T12:40:38.274Z,1006.77
2017-12-29T12:42:05.524Z,1006.80
2017-12-29T12:43:32.709Z,1006.82
2017-12-29T12:44:59.997Z,1006.86
2017-12-29T12:46:27.224Z,1006.87
2017-12-29T12:47:54.340Z,1006.86
2017-12-29T12:49:21.594Z,1006.89
2017-12-29T12:50:48.800Z,1006.86
2017-12-29T12:52:16.162Z,1006.88
2017-12-29T12:53:43.092Z,1006.88
2017-12-29T12:55:10.254Z,1006.83
2017-12-29T12:56:37.538Z,1006.80
2017-12-29T12:58:04.728Z,1006.76
2017-12-29T12:59:32.029Z,1006.76
2017-12-29T13:00:59.196Z,1006.79
2017-12-29T13:02:26.439Z,1006.81
2017-12-29T13:03:53.716Z,1006.79
2017-12-29T13:05:21.109Z,1006.78
2017-12-29T13:06:48.207Z,1006.83
2017-12-29T13:08:15.395Z,1006.80
2017-12-29T13:09:42.278Z,1006.82
2017-12-29T13:11:09.519Z,1006.84
2017-12-29T13:12:36.692Z,1006.84
2017-12-29T13:14:03.886Z,1006.87
2017-12-29T13:15:31.223Z,1006.87
2017-12-29T13:16:58.445Z,1006.85
2017-12-29T13:18:25.602Z,1006.87
2017-12-29T13:19:53.025Z,1006.87
2017-12-29T13:21:20.200Z,1006.85
2017-12-29T13:22:47.492Z,1006.84
2017-12-29T13:24:14.561Z,1006.83
2017-12-29T13:25:41.703Z,1006.83
2017-12-29T13:27:08.897Z,1006.83
2017-12-29T13:28:36.222Z,1006.81
2017-12-29T13:30:03.161Z,1006.77
2017-12-29T13:31:30.418Z,1006.76
2017-12-29T13:32:57.581Z,1006.77
2017-12-29T13:34:24.802Z,1006.77
2017-12-29T13:35:51.922Z,1006.80
2017-12-29T13:37:19.122Z,1006.80
2017-12-29T13:38:46.148Z,1006.82
2017-12-29T13:40:13.487Z,1006.87
2017-12-29T13:41:40.614Z,1006.88
2017-12-29T13:43:08.176Z,1006.91
2017-12-29T13:44:35.371Z,1006.89
2017-12-29T13:46:02.492Z,1006.91
2017-12-29T13:47:29.935Z,1006.88
2017-12-29T13:48:57.234Z,1006.83
2017-12-29T13:50:24.451Z,1006.80
2017-12-29T13:51:51.456Z,1006.82
2017-12-29T13:53:18.641Z,1006.81
2017-12-29T13:54:45.941Z,1006.80
2017-12-29T13:56:13.057Z,1006.82
2017-12-29T13:57:40.422Z,1006.81
2017-12-29T13:59:07.481Z,1006.82
2017-12-29T14:00:34.712Z,1006.85
2017-12-29T14:02:01.930Z,1006.88
2017-12-29T14:03:29.318Z,1006.89
2017-12-29T14:04:56.661Z,1006.88
2017-12-29T14:06:24.000Z,1006.90
2017-12-29T14:07:51.321Z,1006.91
2017-12-29T14:09:18.368Z,1006.91
2017-12-29T14:10:45.627Z,1006.95
2017-12-29T14:12:12.812Z,1006.97
2017-12-29T14:13:40.159Z,1006.97
2017-12-29T14:15:07.416Z,1006.97
2017-12-29T14:16:34.660Z,1006.94
2017-12-29T14:18:01.765Z,1006.95
2017-12-29T14:19:28.867Z,1006.95
2017-12-29T14:20:56.055Z,1006.90
2017-12-29T14:22:23.219Z,1006.89
2017-12-29T14:23:50.562Z,1006.91
2017-12-29T14:25:17.902Z,1006.89
2017-12-29T14:26:45.207Z,1006.90
2017-12-29T14:28:12.359Z,1006.91
2017-12-29T14:29:39.621Z,1006.91
2017-12-29T14:31:07.176Z,1006.91
2017-12-29T14:32:33.890Z,1006.94
2017-12-29T14:34:01.043Z,1006.95
2017-12-29T14:35:28.312Z,1006.95
2017-12-29T14:36:55.525Z,1006.97
2017-12-29T14:38:22.647Z,1006.97
2017-12-29T14:39:49.765Z,1006.98
2017-12-29T14:41:16.796Z,1007.00
2017-12-29T14:42:43.882Z,1006.99
2017-12-29T14:44:10.815Z,1007.01
2017-12-29T14:45:37.599Z,1007.00
2017-12-29T14:47:04.290Z,1007.01
2017-12-29T14:48:31.264Z,1006.99
2017-12-29T14:49:55.400Z,1006.98
2017-12-29T14:51:22.205Z,1007.00
2017-12-29T14:52:52.376Z,1007.01
2017-12-29T14:54:19.425Z,1007.04
2017-12-29T14:55:46.547Z,1007.07
2017-12-29T14:57:13.621Z,1007.11
2017-12-29T14:58:40.666Z,1007.14
2017-12-29T15:00:07.563Z,1007.11
2017-12-29T15:01:34.540Z,1007.13
2017-12-29T15:03:02.752Z,1007.14
2017-12-29T15:04:28.766Z,1007.13
2017-12-29T15:05:55.984Z,1007.15
2017-12-29T15:07:23.299Z,1007.12
2017-12-29T15:08:50.679Z,1007.11
2017-12-29T15:10:17.685Z,1007.14
2017-12-29T15:11:45.199Z,1007.13
2017-12-29T15:13:12.246Z,1007.11
2017-12-29T15:14:39.515Z,1007.12
2017-12-29T15:16:06.734Z,1007.16
2017-12-29T15:17:33.852Z,1007.16
2017-12-29T15:18:58.196Z,1007.19
2017-12-29T15:20:28.529Z,1007.18
2017-12-29T15:21:56.047Z,1007.19
2017-12-29T15:23:23.055Z,1007.18
2017-12-29T15:24:50.171Z,1007.18
2017-12-29T15:26:14.524Z,1007.17
2017-12-29T15:27:41.442Z,1007.17
2017-12-29T15:29:11.491Z,1007.17
2017-12-29T15:30:38.762Z,1007.17
2017-12-29T15:32:02.936Z,1007.18
2017-12-29T15:33:33.313Z,1007.17
2017-12-29T15:35:00.537Z,1007.19
2017-12-29T15:36:27.940Z,1007.18
2017-12-29T15:37:55.079Z,1007.17
2017-12-29T15:39:22.312Z,1007.19
2017-12-29T15:40:49.515Z,1007.17
2017-12-29T15:42:16.680Z,1007.16
2017-12-29T15:43:43.797Z,1007.16
2017-12-29T15:45:11.018Z,1007.14
2017-12-29T15:46:38.351Z,1007.14
2017-12-29T15:48:05.608Z,1007.10
2017-12-29T15:49:32.895Z,1007.14
2017-12-29T15:51:00.034Z,1007.14
2017-12-29T15:52:27.354Z,1007.16
2017-12-29T15:53:54.456Z,1007.17
2017-12-29T15:55:21.817Z,1007.15
2017-12-29T15:56:49.016Z,1007.15
2017-12-29T15:58:16.277Z,1007.12
2017-12-29T15:59:43.495Z,1007.12
2017-12-29T16:01:10.739Z,1007.13
2017-12-29T16:02:37.947Z,1007.15
2017-12-29T16:04:05.139Z,1007.17
2017-12-29T16:05:32.590Z,1007.18
2017-12-29T16:06:56.663Z,1007.18
2017-12-29T16:08:26.953Z,1007.19
2017-12-29T16:09:53.973Z,1007.18
2017-12-29T16:11:21.012Z,1007.18
2017-12-29T16:12:48.336Z,1007.19
2017-12-29T16:14:15.747Z,1007.21
2017-12-29T16:15:42.739Z,1007.21
2017-12-29T16:17:06.692Z,1007.21
2017-12-29T16:18:37.098Z,1007.19
2017-12-29T16:20:04.473Z,1007.18
2017-12-29T16:21:31.550Z,1007.17
2017-12-29T16:22:59.748Z,1007.16
2017-12-29T16:24:25.663Z,1007.18
2017-12-29T16:25:52.897Z,1007.15
2017-12-29T16:27:20.060Z,1007.16
2017-12-29T16:28:47.260Z,1007.16
2017-12-29T16:30:14.481Z,1007.16
2017-12-29T16:31:41.476Z,1007.17
2017-12-29T16:33:08.865Z,1007.17
2017-12-29T16:34:36.194Z,1007.16
2017-12-29T16:36:03.579Z,1007.14
2017-12-29T16:37:30.777Z,1007.11
2017-12-29T16:38:54.980Z,1007.09
2017-12-29T16:40:25.185Z,1007.05
2017-12-29T16:41:52.365Z,1007.03
2017-12-29T16:43:19.570Z,1007.02
2017-12-29T16:44:46.440Z,1007.01
2017-12-29T16:46:13.337Z,1006.99
2017-12-29T16:47:40.802Z,1006.98
2017-12-29T16:49:08.016Z,1007.00
2017-12-29T16:50:35.345Z,1007.02
2017-12-29T16:51:59.382Z,1007.01
2017-12-29T16:53:29.849Z,1007.02
2017-12-29T16:54:56.856Z,1007.00
2017-12-29T16:56:23.973Z,1006.99
2017-12-29T16:57:51.158Z,1006.97
2017-12-29T16:59:18.395Z,1006.98
2017-12-29T17:00:45.488Z,1006.99
2017-12-29T17:02:12.567Z,1007.00
2017-12-29T17:03:39.768Z,1007.01
2017-12-29T17:05:06.739Z,1006.98
2017-12-29T17:06:34.055Z,1006.97
2017-12-29T17:08:01.122Z,1006.96
2017-12-29T17:09:28.256Z,1006.95
2017-12-29T17:10:55.475Z,1006.92
2017-12-29T17:12:22.479Z,1006.89
2017-12-29T17:13:49.678Z,1006.89
2017-12-29T17:15:17.013Z,1006.89
2017-12-29T17:16:44.191Z,1006.87
2017-12-29T17:18:11.248Z,1006.88
2017-12-29T17:19:38.338Z,1006.85
2017-12-29T17:21:05.569Z,1006.85
2017-12-29T17:22:32.805Z,1006.85
2017-12-29T17:24:00.009Z,1006.83
2017-12-29T17:25:27.242Z,1006.81
2017-12-29T17:26:54.172Z,1006.80
2017-12-29T17:28:21.377Z,1006.80
2017-12-29T17:29:48.626Z,1006.77
2017-12-29T17:31:15.773Z,1006.74
2017-12-29T17:32:43.128Z,1006.74
2017-12-29T17:34:10.154Z,1006.74
2017-12-29T17:35:37.328Z,1006.73